sensor_id;sensor_type;location;lat;lon;timestamp;pressure;altitude;pressure_sealevel;temperature;humidity
70434;BME280;57876;47.792;12.960;2023-01-25T00:01:59;98177.47;;;16.17;39.28
70434;BME280;57876;47.792;12.960;2023-01-25T00:04:24;98188.38;;;16.17;39.08
70434;BME280;57876;47.792;12.960;2023-01-25T00:06:49;98191.63;;;16.19;39.26
70434;BME280;57876;47.792;12.960;2023-01-25T00:09:15;98192.75;;;16.18;38.86
70434;BME280;57876;47.792;12.960;2023-01-25T00:11:40;98188.38;;;16.17;39.19
70434;BME280;57876;47.792;12.960;2023-01-25T00:14:05;98183.81;;;16.12;39.14
70434;BME280;57876;47.792;12.960;2023-01-25T00:16:29;98190.88;;;16.13;39.10
70434;BME280;57876;47.792;12.960;2023-01-25T00:18:53;98189.53;;;16.11;39.31
70434;BME280;57876;47.792;12.960;2023-01-25T00:21:20;98186.81;;;16.11;39.30
70434;BME280;57876;47.792;12.960;2023-01-25T00:23:45;98187.91;;;16.10;39.26
70434;BME280;57876;47.792;12.960;2023-01-25T00:26:10;98193.38;;;16.10;38.99
70434;BME280;57876;47.792;12.960;2023-01-25T00:28:35;98190.38;;;16.06;38.94
70434;BME280;57876;47.792;12.960;2023-01-25T00:31:00;98190.09;;;16.07;39.36
70434;BME280;57876;47.792;12.960;2023-01-25T00:33:39;98188.50;;;16.06;39.09
70434;BME280;57876;47.792;12.960;2023-01-25T00:36:57;98191.75;;;16.03;38.99
70434;BME280;57876;47.792;12.960;2023-01-25T00:39:14;98192.88;;;16.02;39.06
70434;BME280;57876;47.792;12.960;2023-01-25T00:41:39;98182.53;;;15.99;39.13
70434;BME280;57876;47.792;12.960;2023-01-25T00:44:04;98178.75;;;15.95;39.19
70434;BME280;57876;47.792;12.960;2023-01-25T00:46:28;98191.84;;;15.98;39.47
70434;BME280;57876;47.792;12.960;2023-01-25T00:48:53;98188.00;;;15.99;38.97
70434;BME280;57876;47.792;12.960;2023-01-25T00:51:18;98193.22;;;15.96;39.09
70434;BME280;57876;47.792;12.960;2023-01-25T00:53:43;98189.66;;;15.95;39.02
70434;BME280;57876;47.792;12.960;2023-01-25T00:56:07;98189.97;;;15.94;39.10
70434;BME280;57876;47.792;12.960;2023-01-25T00:58:31;98187.50;;;15.92;39.25
70434;BME280;57876;47.792;12.960;2023-01-25T01:00:56;98193.75;;;15.93;39.04
70434;BME280;57876;47.792;12.960;2023-01-25T01:03:21;98191.59;;;15.90;39.21
70434;BME280;57876;47.792;12.960;2023-01-25T01:05:46;98190.22;;;15.92;39.30
70434;BME280;57876;47.792;12.960;2023-01-25T01:08:11;98189.69;;;15.90;39.39
70434;BME280;57876;47.792;12.960;2023-01-25T01:10:36;98189.19;;;15.88;39.53
70434;BME280;57876;47.792;12.960;2023-01-25T01:13:00;98196.53;;;15.88;39.61
70434;BME280;57876;47.792;12.960;2023-01-25T01:15:25;98202.81;;;15.88;39.48
70434;BME280;57876;47.792;12.960;2023-01-25T01:17:49;98203.09;;;15.87;39.43
70434;BME280;57876;47.792;12.960;2023-01-25T01:20:14;98203.41;;;15.85;39.55
70434;BME280;57876;47.792;12.960;2023-01-25T01:22:38;98203.66;;;15.83;39.43
70434;BME280;57876;47.792;12.960;2023-01-25T01:25:03;98211.84;;;15.83;39.04
70434;BME280;57876;47.792;12.960;2023-01-25T01:27:27;98203.94;;;15.82;39.17
70434;BME280;57876;47.792;12.960;2023-01-25T01:29:52;98210.78;;;15.79;39.49
70434;BME280;57876;47.792;12.960;2023-01-25T01:32:16;98218.41;;;15.82;39.42
70434;BME280;57876;47.792;12.960;2023-01-25T01:34:41;98211.63;;;15.80;39.55
70434;BME280;57876;47.792;12.960;2023-01-25T01:37:05;98209.16;;;15.78;39.55
70434;BME280;57876;47.792;12.960;2023-01-25T01:39:29;98204.50;;;15.79;39.47
70434;BME280;57876;47.792;12.960;2023-01-25T01:41:54;98195.78;;;15.77;39.87
70434;BME280;57876;47.792;12.960;2023-01-25T01:44:39;98182.22;;;15.72;39.50
70434;BME280;57876;47.792;12.960;2023-01-25T01:47:12;98190.34;;;15.77;39.40
70434;BME280;57876;47.792;12.960;2023-01-25T01:49:38;98194.16;;;15.76;39.41
70434;BME280;57876;47.792;12.960;2023-01-25T01:52:16;98182.72;;;15.74;39.23
70434;BME280;57876;47.792;12.960;2023-01-25T01:54:55;98172.38;;;15.71;39.12
70434;BME280;57876;47.792;12.960;2023-01-25T01:57:23;98172.91;;;15.73;39.36
70434;BME280;57876;47.792;12.960;2023-01-25T01:59:56;98163.94;;;15.72;39.46
70434;BME280;57876;47.792;12.960;2023-01-25T02:02:24;98169.66;;;15.71;39.35
70434;BME280;57876;47.792;12.960;2023-01-25T02:04:49;98167.47;;;15.68;39.59
70434;BME280;57876;47.792;12.960;2023-01-25T02:07:48;98176.22;;;15.70;39.23
70434;BME280;57876;47.792;12.960;2023-01-25T02:10:08;98168.03;;;15.64;39.67
70434;BME280;57876;47.792;12.960;2023-01-25T02:12:36;98172.94;;;15.68;39.36
70434;BME280;57876;47.792;12.960;2023-01-25T02:15:01;98174.31;;;15.65;39.42
70434;BME280;57876;47.792;12.960;2023-01-25T02:17:33;98177.03;;;15.65;39.58
70434;BME280;57876;47.792;12.960;2023-01-25T02:25:34;98172.97;;;15.62;39.36
70434;BME280;57876;47.792;12.960;2023-01-25T02:28:11;98160.44;;;15.61;39.72
70434;BME280;57876;47.792;12.960;2023-01-25T02:30:37;98159.59;;;15.61;39.65
70434;BME280;57876;47.792;12.960;2023-01-25T02:33:02;98155.25;;;15.60;39.61
70434;BME280;57876;47.792;12.960;2023-01-25T02:35:45;98162.31;;;15.61;39.47
70434;BME280;57876;47.792;12.960;2023-01-25T02:38:12;98154.97;;;15.61;39.67
70434;BME280;57876;47.792;12.960;2023-01-25T02:40:44;98139.72;;;15.55;39.94
70434;BME280;57876;47.792;12.960;2023-01-25T02:43:10;98142.97;;;15.62;39.19
70434;BME280;57876;47.792;12.960;2023-01-25T02:45:35;98147.31;;;15.63;39.26
70434;BME280;57876;47.792;12.960;2023-01-25T02:47:59;98146.75;;;15.67;39.63
70434;BME280;57876;47.792;12.960;2023-01-25T02:50:23;98135.31;;;15.64;39.48
70434;BME280;57876;47.792;12.960;2023-01-25T02:52:48;98135.31;;;15.64;39.56
70434;BME280;57876;47.792;12.960;2023-01-25T02:55:12;98135.88;;;15.61;39.62
70434;BME280;57876;47.792;12.960;2023-01-25T02:57:37;98142.38;;;15.66;39.54
70434;BME280;57876;47.792;12.960;2023-01-25T03:00:02;98138.28;;;15.68;39.71
70434;BME280;57876;47.792;12.960;2023-01-25T03:02:26;98143.50;;;15.64;39.20
70434;BME280;57876;47.792;12.960;2023-01-25T03:04:51;98138.59;;;15.67;39.28
70434;BME280;57876;47.792;12.960;2023-01-25T03:07:15;98142.38;;;15.66;39.62
70434;BME280;57876;47.792;12.960;2023-01-25T03:09:40;98148.66;;;15.66;39.60
70434;BME280;57876;47.792;12.960;2023-01-25T03:12:04;98148.66;;;15.66;39.30
70434;BME280;57876;47.792;12.960;2023-01-25T03:14:29;98133.66;;;15.63;39.58
70434;BME280;57876;47.792;12.960;2023-01-25T03:16:53;98139.66;;;15.66;39.30
70434;BME280;57876;47.792;12.960;2023-01-25T03:19:18;98134.75;;;15.68;39.41
70434;BME280;57876;47.792;12.960;2023-01-25T03:21:42;98134.50;;;15.69;39.33
70434;BME280;57876;47.792;12.960;2023-01-25T03:24:08;98124.69;;;15.63;39.49
70434;BME280;57876;47.792;12.960;2023-01-25T03:26:33;98123.84;;;15.68;39.25
70434;BME280;57876;47.792;12.960;2023-01-25T03:29:17;98124.94;;;15.67;39.25
70434;BME280;57876;47.792;12.960;2023-01-25T03:31:42;98117.59;;;15.62;39.65
70434;BME280;57876;47.792;12.960;2023-01-25T03:34:06;98132.03;;;15.68;39.62
70434;BME280;57876;47.792;12.960;2023-01-25T03:36:30;98135.56;;;15.68;39.37
70434;BME280;57876;47.792;12.960;2023-01-25T03:38:55;98138.28;;;15.68;39.42
70434;BME280;57876;47.792;12.960;2023-01-25T03:41:19;98135.56;;;15.68;39.71
70434;BME280;57876;47.792;12.960;2023-01-25T03:43:44;98129.28;;;15.68;39.64
70434;BME280;57876;47.792;12.960;2023-01-25T03:46:08;98137.47;;;15.68;39.42
70434;BME280;57876;47.792;12.960;2023-01-25T03:48:32;98138.84;;;15.70;39.31
70434;BME280;57876;47.792;12.960;2023-01-25T03:50:58;98126.03;;;15.66;39.69
70434;BME280;57876;47.792;12.960;2023-01-25T03:53:27;98127.38;;;15.68;39.61
70434;BME280;57876;47.792;12.960;2023-01-25T03:56:01;98133.66;;;15.69;39.54
70434;BME280;57876;47.792;12.960;2023-01-25T03:58:26;98139.13;;;15.69;39.34
70434;BME280;57876;47.792;12.960;2023-01-25T04:00:55;98129.56;;;15.66;39.65
70434;BME280;57876;47.792;12.960;2023-01-25T04:03:20;98135.31;;;15.70;39.70
70434;BME280;57876;47.792;12.960;2023-01-25T04:05:44;98124.09;;;15.66;39.70
70434;BME280;57876;47.792;12.960;2023-01-25T04:08:09;98138.03;;;15.70;39.82
70434;BME280;57876;47.792;12.960;2023-01-25T04:10:34;98123.84;;;15.68;39.69
70434;BME280;57876;47.792;12.960;2023-01-25T04:12:58;98124.09;;;15.66;39.53
70434;BME280;57876;47.792;12.960;2023-01-25T04:15:22;98113.19;;;15.66;39.39
70434;BME280;57876;47.792;12.960;2023-01-25T04:17:47;98113.19;;;15.66;39.69
70434;BME280;57876;47.792;12.960;2023-01-25T04:20:11;98122.22;;;15.67;39.38
70434;BME280;57876;47.792;12.960;2023-01-25T04:22:36;98125.75;;;15.67;39.73
70434;BME280;57876;47.792;12.960;2023-01-25T04:25:00;98109.13;;;15.63;39.70
70434;BME280;57876;47.792;12.960;2023-01-25T04:27:25;98097.19;;;15.59;39.68
70434;BME280;57876;47.792;12.960;2023-01-25T04:29:49;98104.75;;;15.68;39.63
70434;BME280;57876;47.792;12.960;2023-01-25T04:32:13;98092.75;;;15.63;39.91
70434;BME280;57876;47.792;12.960;2023-01-25T04:34:38;98097.13;;;15.64;39.54
70434;BME280;57876;47.792;12.960;2023-01-25T04:37:02;98096.84;;;15.66;39.58
70434;BME280;57876;47.792;12.960;2023-01-25T04:39:26;98098.75;;;15.66;39.76
70434;BME280;57876;47.792;12.960;2023-01-25T04:41:51;98101.47;;;15.66;39.52
70434;BME280;57876;47.792;12.960;2023-01-25T04:44:15;98108.59;;;15.67;39.86
70434;BME280;57876;47.792;12.960;2023-01-25T04:46:40;98093.59;;;15.64;39.72
70434;BME280;57876;47.792;12.960;2023-01-25T04:49:04;98106.13;;;15.65;39.73
70434;BME280;57876;47.792;12.960;2023-01-25T04:51:28;98106.13;;;15.65;39.78
70434;BME280;57876;47.792;12.960;2023-01-25T04:53:53;98106.41;;;15.63;39.89
70434;BME280;57876;47.792;12.960;2023-01-25T04:56:17;98105.06;;;15.61;39.60
70434;BME280;57876;47.792;12.960;2023-01-25T04:58:42;98103.97;;;15.62;39.41
70434;BME280;57876;47.792;12.960;2023-01-25T05:01:06;98099.06;;;15.64;39.59
70434;BME280;57876;47.792;12.960;2023-01-25T05:03:30;98100.66;;;15.65;39.70
70434;BME280;57876;47.792;12.960;2023-01-25T05:05:55;98095.47;;;15.69;39.54
70434;BME280;57876;47.792;12.960;2023-01-25T05:08:19;98093.00;;;15.72;39.43
70434;BME280;57876;47.792;12.960;2023-01-25T05:10:44;98100.31;;;15.77;39.72
70434;BME280;57876;47.792;12.960;2023-01-25T05:13:08;98090.25;;;15.77;39.81
70434;BME280;57876;47.792;12.960;2023-01-25T05:15:32;98100.28;;;15.82;39.66
70434;BME280;57876;47.792;12.960;2023-01-25T05:17:57;98095.13;;;15.80;39.85
70434;BME280;57876;47.792;12.960;2023-01-25T05:20:21;98088.56;;;15.81;39.68
70434;BME280;57876;47.792;12.960;2023-01-25T05:22:46;98085.03;;;15.81;39.75
70434;BME280;57876;47.792;12.960;2023-01-25T05:25:10;98086.94;;;15.80;39.69
70434;BME280;57876;47.792;12.960;2023-01-25T05:27:54;98080.69;;;15.80;39.76
70434;BME280;57876;47.792;12.960;2023-01-25T05:30:19;98077.09;;;15.79;39.60
70434;BME280;57876;47.792;12.960;2023-01-25T05:32:43;98075.78;;;15.77;39.73
70434;BME280;57876;47.792;12.960;2023-01-25T05:35:08;98072.50;;;15.80;39.71
70434;BME280;57876;47.792;12.960;2023-01-25T05:37:32;98063.47;;;15.79;39.60
70434;BME280;57876;47.792;12.960;2023-01-25T05:39:56;98066.47;;;15.83;39.66
70434;BME280;57876;47.792;12.960;2023-01-25T05:42:21;98058.84;;;15.80;39.38
70434;BME280;57876;47.792;12.960;2023-01-25T05:44:45;98060.97;;;15.88;39.83
70434;BME280;57876;47.792;12.960;2023-01-25T05:47:14;98068.56;;;15.91;39.64
70434;BME280;57876;47.792;12.960;2023-01-25T05:49:39;98065.84;;;15.91;39.82
70434;BME280;57876;47.792;12.960;2023-01-25T05:52:04;98057.06;;;15.94;39.87
70434;BME280;57876;47.792;12.960;2023-01-25T05:54:28;98060.91;;;15.93;39.64
70434;BME280;57876;47.792;12.960;2023-01-25T05:56:52;98063.88;;;15.97;39.67
70434;BME280;57876;47.792;12.960;2023-01-25T05:59:17;98063.00;;;16.01;39.75
70434;BME280;57876;47.792;12.960;2023-01-25T06:01:42;98059.69;;;16.04;39.60
70434;BME280;57876;47.792;12.960;2023-01-25T06:04:06;98060.72;;;16.08;39.88
70434;BME280;57876;47.792;12.960;2023-01-25T06:06:31;98058.25;;;16.12;39.66
70434;BME280;57876;47.792;12.960;2023-01-25T06:08:55;98057.44;;;16.12;39.90
70434;BME280;57876;47.792;12.960;2023-01-25T06:11:22;98061.44;;;16.19;39.50
70434;BME280;57876;47.792;12.960;2023-01-25T06:13:47;98053.53;;;16.18;39.68
70434;BME280;57876;47.792;12.960;2023-01-25T06:16:12;98056.22;;;16.23;39.56
70434;BME280;57876;47.792;12.960;2023-01-25T06:18:37;98064.34;;;16.28;39.81
70434;BME280;57876;47.792;12.960;2023-01-25T06:21:03;98057.50;;;16.31;39.99
70434;BME280;57876;47.792;12.960;2023-01-25T06:23:27;98064.31;;;16.33;39.54
70434;BME280;57876;47.792;12.960;2023-01-25T06:25:52;98058.84;;;16.33;40.04
70434;BME280;57876;47.792;12.960;2023-01-25T06:28:19;98063.72;;;16.36;39.76
70434;BME280;57876;47.792;12.960;2023-01-25T06:30:43;98059.88;;;16.37;39.91
70434;BME280;57876;47.792;12.960;2023-01-25T06:33:08;98053.88;;;16.35;39.38
70434;BME280;57876;47.792;12.960;2023-01-25T06:35:33;98051.75;;;16.32;39.78
70434;BME280;57876;47.792;12.960;2023-01-25T06:37:58;98047.38;;;16.31;39.50
70434;BME280;57876;47.792;12.960;2023-01-25T06:40:24;98058.19;;;16.41;39.60
70434;BME280;57876;47.792;12.960;2023-01-25T06:42:48;98047.63;;;16.35;39.76
70434;BME280;57876;47.792;12.960;2023-01-25T06:45:13;98056.56;;;16.40;39.91
70434;BME280;57876;47.792;12.960;2023-01-25T06:47:38;98050.06;;;16.36;40.02
70434;BME280;57876;47.792;12.960;2023-01-25T06:50:03;98052.16;;;16.44;39.94
70434;BME280;57876;47.792;12.960;2023-01-25T06:52:27;98058.41;;;16.45;39.80
70434;BME280;57876;47.792;12.960;2023-01-25T06:55:00;98057.03;;;16.47;39.58
70434;BME280;57876;47.792;12.960;2023-01-25T06:57:25;98045.28;;;16.47;39.48
70434;BME280;57876;47.792;12.960;2023-01-25T06:59:49;98043.91;;;16.49;39.61
70434;BME280;57876;47.792;12.960;2023-01-25T07:02:14;98037.63;;;16.49;39.93
70434;BME280;57876;47.792;12.960;2023-01-25T07:04:39;98033.50;;;16.51;39.48
70434;BME280;57876;47.792;12.960;2023-01-25T07:07:06;98032.44;;;16.47;39.46
70434;BME280;57876;47.792;12.960;2023-01-25T07:09:31;98038.88;;;16.57;39.85
70434;BME280;57876;47.792;12.960;2023-01-25T07:11:55;98034.81;;;16.54;39.78
70434;BME280;57876;47.792;12.960;2023-01-25T07:14:19;98038.66;;;16.53;39.75
70434;BME280;57876;47.792;12.960;2023-01-25T07:16:44;98039.72;;;16.57;39.63
70434;BME280;57876;47.792;12.960;2023-01-25T07:19:10;98032.59;;;16.56;40.01
70434;BME280;57876;47.792;12.960;2023-01-25T07:21:36;98029.59;;;16.58;40.04
70434;BME280;57876;47.792;12.960;2023-01-25T07:24:02;98036.91;;;16.62;39.67
70434;BME280;57876;47.792;12.960;2023-01-25T07:26:27;98036.06;;;16.62;39.80
70434;BME280;57876;47.792;12.960;2023-01-25T07:28:52;98030.59;;;16.62;40.06
70434;BME280;57876;47.792;12.960;2023-01-25T07:31:18;98033.88;;;16.64;39.76
70434;BME280;57876;47.792;12.960;2023-01-25T07:33:46;98022.13;;;16.63;39.73
70434;BME280;57876;47.792;12.960;2023-01-25T07:36:12;98013.41;;;16.61;39.82
70434;BME280;57876;47.792;12.960;2023-01-25T07:38:37;98021.84;;;16.65;39.71
70434;BME280;57876;47.792;12.960;2023-01-25T07:41:02;98020.72;;;16.66;39.34
70434;BME280;57876;47.792;12.960;2023-01-25T07:43:26;98007.66;;;16.63;39.83
70434;BME280;57876;47.792;12.960;2023-01-25T07:45:51;98011.41;;;16.67;39.52
70434;BME280;57876;47.792;12.960;2023-01-25T07:48:17;98015.47;;;16.69;39.89
70434;BME280;57876;47.792;12.960;2023-01-25T07:50:42;98022.59;;;16.70;39.53
70434;BME280;57876;47.792;12.960;2023-01-25T07:53:09;98012.22;;;16.67;39.90
70434;BME280;57876;47.792;12.960;2023-01-25T07:55:34;98026.66;;;16.73;39.72
70434;BME280;57876;47.792;12.960;2023-01-25T07:57:58;98021.47;;;16.71;39.69
70434;BME280;57876;47.792;12.960;2023-01-25T08:00:23;98026.94;;;16.71;39.73
70434;BME280;57876;47.792;12.960;2023-01-25T08:02:52;98020.66;;;16.71;39.38
70434;BME280;57876;47.792;12.960;2023-01-25T08:05:16;98016.28;;;16.70;39.87
70434;BME280;57876;47.792;12.960;2023-01-25T08:07:41;98014.41;;;16.70;39.51
70434;BME280;57876;47.792;12.960;2023-01-25T08:10:06;98009.22;;;16.69;39.46
70434;BME280;57876;47.792;12.960;2023-01-25T08:12:31;98014.09;;;16.72;39.99
70434;BME280;57876;47.792;12.960;2023-01-25T08:14:57;98010.03;;;16.69;39.58
70434;BME280;57876;47.792;12.960;2023-01-25T08:17:21;98013.00;;;16.73;39.37
70434;BME280;57876;47.792;12.960;2023-01-25T08:19:46;97998.88;;;16.66;39.66
70434;BME280;57876;47.792;12.960;2023-01-25T08:22:10;98014.41;;;16.70;40.05
70434;BME280;57876;47.792;12.960;2023-01-25T08:24:36;98015.41;;;16.74;39.46
70434;BME280;57876;47.792;12.960;2023-01-25T08:27:01;98013.00;;;16.73;39.50
70434;BME280;57876;47.792;12.960;2023-01-25T08:29:25;98019.78;;;16.76;39.54
70434;BME280;57876;47.792;12.960;2023-01-25T08:31:51;98024.41;;;16.75;40.11
70434;BME280;57876;47.792;12.960;2023-01-25T08:34:15;98007.22;;;16.74;39.81
70434;BME280;57876;47.792;12.960;2023-01-25T08:36:39;98012.13;;;16.78;39.82
70434;BME280;57876;47.792;12.960;2023-01-25T08:39:05;98018.41;;;16.78;39.61
70434;BME280;57876;47.792;12.960;2023-01-25T08:41:32;98011.84;;;16.79;39.89
70434;BME280;57876;47.792;12.960;2023-01-25T08:43:57;98005.84;;;16.77;39.78
70434;BME280;57876;47.792;12.960;2023-01-25T08:46:23;98008.31;;;16.79;39.63
70434;BME280;57876;47.792;12.960;2023-01-25T08:48:53;98006.06;;;16.81;39.67
70434;BME280;57876;47.792;12.960;2023-01-25T08:51:18;98004.44;;;16.80;39.51
70434;BME280;57876;47.792;12.960;2023-01-25T08:53:43;97998.19;;;16.79;39.61
70434;BME280;57876;47.792;12.960;2023-01-25T08:56:10;97995.13;;;16.81;39.64
70434;BME280;57876;47.792;12.960;2023-01-25T08:58:36;97992.41;;;16.81;39.58
70434;BME280;57876;47.792;12.960;2023-01-25T09:01:03;97994.84;;;16.82;39.72
70434;BME280;57876;47.792;12.960;2023-01-25T09:03:28;97995.66;;;16.83;39.44
70434;BME280;57876;47.792;12.960;2023-01-25T09:05:53;97986.44;;;16.79;39.80
70434;BME280;57876;47.792;12.960;2023-01-25T09:08:17;97982.59;;;16.80;40.04
70434;BME280;57876;47.792;12.960;2023-01-25T09:10:42;97978.75;;;16.81;39.31
70434;BME280;57876;47.792;12.960;2023-01-25T09:13:06;97988.06;;;16.80;39.73
70434;BME280;57876;47.792;12.960;2023-01-25T09:15:31;97983.41;;;16.80;39.67
70434;BME280;57876;47.792;12.960;2023-01-25T09:17:56;97985.25;;;16.85;39.63
70434;BME280;57876;47.792;12.960;2023-01-25T09:20:20;97988.78;;;16.85;39.64
70434;BME280;57876;47.792;12.960;2023-01-25T09:22:45;97993.44;;;16.85;39.57
70434;BME280;57876;47.792;12.960;2023-01-25T09:25:09;98000.84;;;16.84;39.51
70434;BME280;57876;47.792;12.960;2023-01-25T09:27:34;97987.47;;;16.83;39.55
70434;BME280;57876;47.792;12.960;2023-01-25T09:29:59;97989.91;;;16.84;39.90
70434;BME280;57876;47.792;12.960;2023-01-25T09:32:23;97990.19;;;16.83;39.82
70434;BME280;57876;47.792;12.960;2023-01-25T09:34:47;97986.13;;;16.80;39.89
70434;BME280;57876;47.792;12.960;2023-01-25T09:37:12;97985.84;;;16.82;39.95
70434;BME280;57876;47.792;12.960;2023-01-25T09:39:36;97990.50;;;16.81;39.61
70434;BME280;57876;47.792;12.960;2023-01-25T09:50:31;97981.41;;;16.86;39.92
70434;BME280;57876;47.792;12.960;2023-01-25T09:55:41;97980.59;;;16.85;39.72
70434;BME280;57876;47.792;12.960;2023-01-25T09:58:18;97969.66;;;16.85;39.89
70434;BME280;57876;47.792;12.960;2023-01-25T10:00:44;97963.69;;;16.83;39.40
70434;BME280;57876;47.792;12.960;2023-01-25T10:05:52;97953.88;;;16.82;39.68
70434;BME280;57876;47.792;12.960;2023-01-25T10:08:26;97963.38;;;16.85;39.78
70434;BME280;57876;47.792;12.960;2023-01-25T10:11:05;97950.25;;;16.87;39.46
70434;BME280;57876;47.792;12.960;2023-01-25T10:13:31;97951.34;;;16.86;39.54
70434;BME280;57876;47.792;12.960;2023-01-25T10:16:00;97945.59;;;16.87;39.53
70434;BME280;57876;47.792;12.960;2023-01-25T10:23:49;97948.84;;;16.89;39.66
70434;BME280;57876;47.792;12.960;2023-01-25T10:26:41;97944.19;;;16.90;39.87
70434;BME280;57876;47.792;12.960;2023-01-25T10:29:12;97941.75;;;16.88;39.63
70434;BME280;57876;47.792;12.960;2023-01-25T10:32:10;97934.66;;;16.87;39.82
70434;BME280;57876;47.792;12.960;2023-01-25T10:34:39;97927.59;;;16.86;39.88
70434;BME280;57876;47.792;12.960;2023-01-25T10:37:17;97917.16;;;16.88;39.87
70434;BME280;57876;47.792;12.960;2023-01-25T10:42:21;97910.06;;;16.87;39.70
70434;BME280;57876;47.792;12.960;2023-01-25T10:44:49;97908.94;;;16.88;39.85
70434;BME280;57876;47.792;12.960;2023-01-25T10:47:26;97904.81;;;16.91;39.71
70434;BME280;57876;47.792;12.960;2023-01-25T10:49:56;97898.34;;;16.87;39.65
70434;BME280;57876;47.792;12.960;2023-01-25T10:52:29;97894.19;;;16.89;39.88
70434;BME280;57876;47.792;12.960;2023-01-25T10:55:12;97891.47;;;16.89;39.31
70434;BME280;57876;47.792;12.960;2023-01-25T10:57:41;97877.38;;;16.82;39.93
70434;BME280;57876;47.792;12.960;2023-01-25T11:00:07;97881.63;;;16.88;39.37
70434;BME280;57876;47.792;12.960;2023-01-25T11:02:46;97872.09;;;16.86;39.58
70434;BME280;57876;47.792;12.960;2023-01-25T11:07:41;97871.28;;;16.85;39.75
70434;BME280;57876;47.792;12.960;2023-01-25T11:10:30;97878.41;;;16.86;39.91
70434;BME280;57876;47.792;12.960;2023-01-25T11:15:38;97863.91;;;16.86;39.30
70434;BME280;57876;47.792;12.960;2023-01-25T11:18:22;97857.03;;;16.88;39.62
70434;BME280;57876;47.792;12.960;2023-01-25T11:20:47;97873.94;;;16.90;39.69
70434;BME280;57876;47.792;12.960;2023-01-25T11:23:23;97865.75;;;16.90;39.29
70434;BME280;57876;47.792;12.960;2023-01-25T11:25:48;97849.66;;;16.89;39.72
70434;BME280;57876;47.792;12.960;2023-01-25T11:28:21;97850.47;;;16.89;39.32
70434;BME280;57876;47.792;12.960;2023-01-25T11:30:46;97848.53;;;16.90;39.73
70434;BME280;57876;47.792;12.960;2023-01-25T11:33:12;97854.53;;;16.92;39.76
70434;BME280;57876;47.792;12.960;2023-01-25T11:35:48;97836.81;;;16.89;39.44
70434;BME280;57876;47.792;12.960;2023-01-25T11:38:18;97836.81;;;16.89;39.58
70434;BME280;57876;47.792;12.960;2023-01-25T11:40:53;97832.66;;;16.92;39.55
70434;BME280;57876;47.792;12.960;2023-01-25T11:54:16;97804.22;;;16.93;39.73
70434;BME280;57876;47.792;12.960;2023-01-25T11:57:08;97794.41;;;16.92;39.21
70434;BME280;57876;47.792;12.960;2023-01-25T11:59:52;97784.56;;;16.91;39.21
70434;BME280;57876;47.792;12.960;2023-01-25T12:04:51;97768.41;;;16.94;39.28
70434;BME280;57876;47.792;12.960;2023-01-25T12:10:19;97762.44;;;16.92;39.76
70434;BME280;57876;47.792;12.960;2023-01-25T12:28:28;97725.78;;;16.93;39.75
70434;BME280;57876;47.792;12.960;2023-01-25T12:33:34;97707.88;;;16.87;39.40
70434;BME280;57876;47.792;12.960;2023-01-25T12:36:07;97708.38;;;16.89;39.64
70434;BME280;57876;47.792;12.960;2023-01-25T12:38:56;97706.97;;;16.92;39.75
70434;BME280;57876;47.792;12.960;2023-01-25T12:49:37;97695.44;;;16.95;39.66
70434;BME280;57876;47.792;12.960;2023-01-25T12:52:06;97686.44;;;16.94;39.37
70434;BME280;57876;47.792;12.960;2023-01-25T12:54:39;97681.66;;;17.00;39.54
70434;BME280;57876;47.792;12.960;2023-01-25T12:57:41;97674.88;;;16.98;39.67
70434;BME280;57876;47.792;12.960;2023-01-25T13:03:25;97669.94;;;17.00;39.66
70434;BME280;57876;47.792;12.960;2023-01-25T13:09:05;97659.59;;;16.97;39.33
70434;BME280;57876;47.792;12.960;2023-01-25T13:16:47;97670.50;;;16.97;39.21
70434;BME280;57876;47.792;12.960;2023-01-25T13:19:37;97666.97;;;16.96;39.08
70434;BME280;57876;47.792;12.960;2023-01-25T13:22:02;97668.28;;;16.99;39.54
70434;BME280;57876;47.792;12.960;2023-01-25T13:32:04;97656.25;;;17.00;39.28
70434;BME280;57876;47.792;12.960;2023-01-25T13:36:59;97654.13;;;16.97;39.82
70434;BME280;57876;47.792;12.960;2023-01-25T13:42:03;97665.78;;;17.02;39.18
70434;BME280;57876;47.792;12.960;2023-01-25T13:44:30;97656.75;;;17.02;39.72
70434;BME280;57876;47.792;12.960;2023-01-25T13:47:01;97654.63;;;16.99;39.51
70434;BME280;57876;47.792;12.960;2023-01-25T13:49:51;97655.13;;;17.01;39.64
70434;BME280;57876;47.792;12.960;2023-01-25T13:52:19;97657.59;;;17.02;39.49
70434;BME280;57876;47.792;12.960;2023-01-25T13:54:45;97654.53;;;17.04;39.17
70434;BME280;57876;47.792;12.960;2023-01-25T13:57:12;97649.16;;;16.99;39.08
70434;BME280;57876;47.792;12.960;2023-01-25T13:59:37;97649.97;;;16.99;39.47
70434;BME280;57876;47.792;12.960;2023-01-25T14:02:01;97653.53;;;17.00;39.65
70434;BME280;57876;47.792;12.960;2023-01-25T14:04:27;97659.00;;;17.00;39.68
70434;BME280;57876;47.792;12.960;2023-01-25T14:06:56;97647.03;;;16.95;39.77
70434;BME280;57876;47.792;12.960;2023-01-25T14:09:21;97649.47;;;16.97;39.21
70434;BME280;57876;47.792;12.960;2023-01-25T14:11:57;97648.06;;;17.00;39.24
70434;BME280;57876;47.792;12.960;2023-01-25T14:14:33;97648.25;;;17.03;39.33
70434;BME280;57876;47.792;12.960;2023-01-25T14:17:19;97649.84;;;17.04;39.23
70434;BME280;57876;47.792;12.960;2023-01-25T14:19:54;97646.03;;;17.05;39.45
70434;BME280;57876;47.792;12.960;2023-01-25T14:22:30;97641.66;;;17.04;39.46
70434;BME280;57876;47.792;12.960;2023-01-25T14:27:42;97648.44;;;17.07;39.34
70434;BME280;57876;47.792;12.960;2023-01-25T14:30:22;97635.91;;;17.06;39.52
70434;BME280;57876;47.792;12.960;2023-01-25T14:32:49;97638.63;;;17.06;39.68
70434;BME280;57876;47.792;12.960;2023-01-25T14:37:50;97622.53;;;17.04;39.20